Time;durP1;ratioP1;P1;durP2;ratioP2;P2;SDS_P1;SDS_P2;PMS_P1;PMS_P2;Temp;Humidity;BMP_temperature;BMP_pressure;BME280_temperature;BME280_humidity;BME280_pressure;Samples;Min_cycle;Max_cycle;Signal;HPM_P1;HPM_P2
2022/11/23 00:00:39;;;;;;;13.10;9.63;;;;;;;-0.83;88.21;99269.78;1766963;80;21050;-77
2022/11/23 00:03:05;;;;;;;12.58;9.20;;;;;;;-0.87;88.49;99276.61;1768417;80;21030;-77
2022/11/23 00:05:33;;;;;;;16.70;10.58;;;;;;;-0.89;88.75;99278.05;1755459;80;21051;-77
2022/11/23 00:08:00;;;;;;;13.65;9.78;;;;;;;-0.83;88.56;99267.63;1758512;80;21004;-73
2022/11/23 00:10:29;;;;;;;14.23;9.30;;;;;;;-0.86;88.83;99270.47;1774617;80;22101;-77
2022/11/23 00:12:55;;;;;;;14.93;9.30;;;;;;;-0.81;88.71;99267.08;1713714;82;21037;-76
2022/11/23 00:15:21;;;;;;;15.35;9.58;;;;;;;-0.85;88.63;99268.20;1692195;83;21046;-77
2022/11/23 00:17:49;;;;;;;14.75;9.55;;;;;;;-0.84;88.52;99268.58;1768724;80;21073;-75
2022/11/23 00:20:17;;;;;;;13.53;9.90;;;;;;;-0.88;88.62;99269.27;1762020;80;21604;-75
2022/11/23 00:22:44;;;;;;;11.97;8.90;;;;;;;-0.86;88.54;99275.68;1768645;80;21081;-76
2022/11/23 00:25:10;;;;;;;14.07;9.25;;;;;;;-0.89;88.54;99281.09;1765959;80;21122;-76
2022/11/23 00:27:38;;;;;;;13.28;8.95;;;;;;;-0.92;88.70;99276.11;1758195;80;21374;-75
2022/11/23 00:30:07;;;;;;;14.20;9.80;;;;;;;-0.91;88.64;99281.67;1750633;80;21053;-76
2022/11/23 00:32:33;;;;;;;12.45;9.28;;;;;;;-0.94;88.62;99283.21;1757638;80;21017;-75
2022/11/23 00:35:00;;;;;;;13.13;10.18;;;;;;;-0.95;88.73;99284.14;1744385;80;21174;-74
2022/11/23 00:37:26;;;;;;;12.80;9.35;;;;;;;-0.95;88.80;99282.35;1759350;80;21030;-74
2022/11/23 00:39:54;;;;;;;12.70;8.60;;;;;;;-0.89;89.12;99285.01;1707563;84;21077;-73
2022/11/23 00:42:21;;;;;;;14.03;9.40;;;;;;;-0.84;89.04;99287.66;1711014;82;21108;-73
2022/11/23 00:44:47;;;;;;;15.60;9.73;;;;;;;-0.78;88.68;99285.10;1711127;83;21125;-74
2022/11/23 00:47:14;;;;;;;14.98;10.90;;;;;;;-0.70;88.50;99282.78;1689865;85;21834;-74
2022/11/23 00:49:41;;;;;;;14.45;10.30;;;;;;;-0.71;88.62;99277.22;1746593;80;21026;-73
2022/11/23 00:52:07;;;;;;;16.45;10.45;;;;;;;-0.70;88.83;99278.88;1750979;80;21095;-74
2022/11/23 00:54:34;;;;;;;14.98;9.38;;;;;;;-0.58;89.06;99275.04;1743514;80;21019;-72
2022/11/23 00:57:01;;;;;;;13.45;9.35;;;;;;;-0.52;88.88;99273.30;1743210;82;21610;-75
2022/11/23 00:59:28;;;;;;;14.23;10.28;;;;;;;-0.44;88.32;99279.65;1744054;80;21151;-74
2022/11/23 01:01:55;;;;;;;13.60;9.70;;;;;;;-0.38;87.84;99272.34;1755278;80;20995;-74
2022/11/23 01:04:22;;;;;;;15.75;10.90;;;;;;;-0.45;87.87;99277.14;1703710;82;21470;-73
2022/11/23 01:06:54;;;;;;;15.83;10.63;;;;;;;-0.47;88.24;99272.50;1712085;82;21047;-74
2022/11/23 01:09:25;;;;;;;14.85;10.08;;;;;;;-0.40;87.87;99277.18;1687720;83;21089;-73
2022/11/23 01:11:50;;;;;;;15.38;10.80;;;;;;;-0.45;87.54;99279.75;1688250;84;21058;-73
2022/11/23 01:14:17;;;;;;;16.67;10.95;;;;;;;-0.45;87.53;99288.41;1763703;81;21062;-76
2022/11/23 01:16:43;;;;;;;16.00;11.00;;;;;;;-0.49;87.74;99290.88;1755971;81;21038;-77
2022/11/23 01:19:14;;;;;;;16.42;11.65;;;;;;;-0.48;87.73;99293.86;1750653;80;21003;-76
2022/11/23 01:21:41;;;;;;;18.32;11.43;;;;;;;-0.50;87.71;99292.28;1757526;80;21593;-77
2022/11/23 01:24:14;;;;;;;16.05;10.70;;;;;;;-0.55;87.71;99290.48;1755679;80;21159;-73
2022/11/23 01:26:40;;;;;;;17.00;11.75;;;;;;;-0.54;87.79;99290.84;1756083;81;21520;-75
2022/11/23 01:29:07;;;;;;;16.07;11.30;;;;;;;-0.46;87.88;99297.67;1769438;80;21490;-76
2022/11/23 01:31:34;;;;;;;16.00;11.73;;;;;;;-0.48;87.97;99303.47;1726807;82;21596;-74
2022/11/23 01:34:03;;;;;;;15.83;11.30;;;;;;;-0.55;87.98;99303.06;1725462;82;21046;-76
2022/11/23 01:36:33;;;;;;;18.27;12.10;;;;;;;-0.55;88.04;99292.63;1704851;82;21249;-77
2022/11/23 01:39:00;;;;;;;16.95;11.55;;;;;;;-0.60;88.14;99294.27;1728092;82;20978;-76
2022/11/23 01:41:31;;;;;;;16.67;12.13;;;;;;;-0.52;87.98;99293.72;1748832;82;21077;-75
2022/11/23 01:43:59;;;;;;;18.15;12.85;;;;;;;-0.52;87.93;99298.08;1749373;82;21081;-75
2022/11/23 01:46:26;;;;;;;18.07;11.20;;;;;;;-0.60;88.17;99309.06;1737146;82;21061;-75
2022/11/23 01:49:00;;;;;;;16.80;11.35;;;;;;;-0.65;88.38;99315.09;1731204;82;21574;-76
2022/11/23 01:51:39;;;;;;;16.32;11.20;;;;;;;-0.65;88.23;99306.78;1732467;82;21047;-75
2022/11/23 01:54:10;;;;;;;16.85;11.60;;;;;;;-0.72;88.37;99304.23;1704172;83;21066;-76
2022/11/23 01:56:40;;;;;;;16.80;11.50;;;;;;;-0.75;88.56;99301.00;1737346;82;21094;-75
2022/11/23 01:59:10;;;;;;;17.30;11.03;;;;;;;-0.76;88.87;99302.78;1693263;83;21530;-75
2022/11/23 02:01:36;;;;;;;18.75;11.93;;;;;;;-0.77;88.97;99310.70;1691277;84;21256;-76
2022/11/23 02:04:04;;;;;;;18.95;11.40;;;;;;;-0.73;88.91;99312.19;1719885;83;20991;-75
2022/11/23 02:06:30;;;;;;;15.20;10.58;;;;;;;-0.77;88.98;99310.26;1707264;82;21038;-77
2022/11/23 02:08:59;;;;;;;17.77;11.78;;;;;;;-0.79;89.17;99312.14;1712505;83;21542;-77
2022/11/23 02:11:26;;;;;;;15.72;11.18;;;;;;;-0.73;88.92;99307.80;1714220;82;21034;-76
2022/11/23 02:13:55;;;;;;;16.37;11.78;;;;;;;-0.68;88.97;99316.12;1723499;83;21272;-75
2022/11/23 02:16:22;;;;;;;15.48;10.60;;;;;;;-0.72;89.23;99319.88;1713751;83;21621;-78
2022/11/23 02:18:50;;;;;;;18.05;11.83;;;;;;;-0.81;89.18;99310.11;1697869;83;21041;-78
2022/11/23 02:21:20;;;;;;;18.80;11.93;;;;;;;-0.77;89.31;99320.69;1697473;84;21094;-79
2022/11/23 02:24:13;;;;;;;17.80;12.05;;;;;;;-0.78;89.47;99322.09;1719416;83;21167;-77
2022/11/23 02:26:40;;;;;;;19.85;12.78;;;;;;;-0.73;89.28;99325.23;1699192;83;21181;-77
2022/11/23 02:29:16;;;;;;;22.90;13.50;;;;;;;-0.77;89.32;99326.36;1744436;80;20995;-77
2022/11/23 02:31:42;;;;;;;19.40;12.43;;;;;;;-0.80;89.27;99325.63;1729847;80;21045;-77
2022/11/23 02:34:09;;;;;;;18.85;12.35;;;;;;;-0.77;89.51;99327.66;1742195;81;21069;-77
2022/11/23 02:36:50;;;;;;;20.57;13.43;;;;;;;-0.67;89.32;99328.71;1744092;80;21581;-78
2022/11/23 02:39:28;;;;;;;19.73;12.88;;;;;;;-0.69;89.56;99326.20;1755275;80;21189;-79
2022/11/23 02:41:55;;;;;;;21.25;13.70;;;;;;;-0.71;89.88;99329.87;1756484;80;21026;-78
2022/11/23 02:44:53;;;;;;;18.02;12.18;;;;;;;-0.67;89.68;99333.45;1743805;81;21062;-75
2022/11/23 02:47:20;;;;;;;20.20;12.47;;;;;;;-0.58;89.36;99337.66;1743692;80;21015;-74
2022/11/23 02:49:48;;;;;;;18.67;12.37;;;;;;;-0.64;89.74;99326.73;1765705;80;21017;-76
2022/11/23 02:52:15;;;;;;;19.90;12.78;;;;;;;-0.60;90.00;99333.84;1766044;80;21735;-76
2022/11/23 02:54:41;;;;;;;16.77;10.55;;;;;;;-0.51;89.78;99327.98;1744207;80;21006;-74
2022/11/23 02:57:08;;;;;;;17.12;10.75;;;;;;;-0.50;89.28;99341.86;1751170;80;21069;-76
2022/11/23 02:59:35;;;;;;;15.05;9.68;;;;;;;-0.45;88.82;99344.52;1750583;80;21078;-75
2022/11/23 03:02:04;;;;;;;16.75;11.05;;;;;;;-0.46;88.71;99336.82;1755978;80;20974;-76
2022/11/23 03:04:31;;;;;;;15.53;10.60;;;;;;;-0.52;89.15;99337.22;1748560;80;21879;-75
2022/11/23 03:06:58;;;;;;;17.80;11.18;;;;;;;-0.50;89.25;99339.25;1694370;84;21164;-75
2022/11/23 03:09:25;;;;;;;16.73;11.65;;;;;;;-0.42;89.18;99339.58;1725633;82;21133;-77
2022/11/23 03:11:52;;;;;;;16.65;11.70;;;;;;;-0.39;89.24;99345.86;1712319;82;21055;-75
2022/11/23 03:14:19;;;;;;;18.20;11.00;;;;;;;-0.34;88.65;99347.69;1706653;82;21049;-76
2022/11/23 03:16:50;;;;;;;16.07;9.98;;;;;;;-0.40;88.46;99347.65;1705895;82;21223;-76
2022/11/23 03:19:18;;;;;;;16.15;10.13;;;;;;;-0.36;88.46;99339.13;1735612;82;21015;-76
2022/11/23 03:21:46;;;;;;;13.58;8.98;;;;;;;-0.28;88.47;99332.89;1724359;82;21067;-76
2022/11/23 03:24:12;;;;;;;12.65;9.00;;;;;;;-0.27;88.33;99332.41;1717024;82;22385;-74
2022/11/23 03:26:38;;;;;;;13.28;8.75;;;;;;;-0.30;87.85;99328.73;1715474;82;22284;-76
2022/11/23 03:29:09;;;;;;;12.70;8.13;;;;;;;-0.28;87.30;99342.03;1706513;82;21103;-75
2022/11/23 03:31:37;;;;;;;11.60;7.72;;;;;;;-0.36;87.08;99340.44;1710869;82;20997;-77
2022/11/23 03:34:06;;;;;;;9.90;6.97;;;;;;;-0.40;86.95;99339.82;1698094;84;21075;-77
2022/11/23 03:36:33;;;;;;;11.48;7.22;;;;;;;-0.42;87.05;99340.88;1703326;84;21534;-77
2022/11/23 03:39:00;;;;;;;9.13;6.28;;;;;;;-0.38;86.63;99344.94;1673231;85;21609;-75
2022/11/23 03:41:28;;;;;;;10.32;7.67;;;;;;;-0.39;86.77;99340.64;1732515;80;21664;-77
2022/11/23 03:43:57;;;;;;;10.48;6.70;;;;;;;-0.33;86.51;99343.30;1747643;80;21031;-78
2022/11/23 03:46:23;;;;;;;9.58;6.78;;;;;;;-0.35;86.36;99344.70;1746724;80;21034;-77
2022/11/23 03:48:50;;;;;;;9.63;7.03;;;;;;;-0.27;86.30;99350.69;1744652;81;20999;-77
2022/11/23 03:51:16;;;;;;;8.83;6.87;;;;;;;-0.29;85.97;99348.20;1743662;80;21018;-78
2022/11/23 03:53:43;;;;;;;9.80;7.58;;;;;;;-0.27;85.70;99352.84;1775015;80;21258;-77
2022/11/23 03:56:10;;;;;;;12.25;8.95;;;;;;;-0.36;85.44;99354.80;1707756;84;21021;-78
2022/11/23 03:58:38;;;;;;;14.05;11.00;;;;;;;-0.38;85.50;99356.69;1710267;82;21008;-77
2022/11/23 04:01:07;;;;;;;16.97;12.95;;;;;;;-0.43;85.78;99358.77;1700205;83;20995;-77
2022/11/23 04:03:34;;;;;;;14.70;9.25;;;;;;;-0.43;85.93;99356.16;1751434;80;20998;-78
2022/11/23 04:06:14;;;;;;;12.55;9.00;;;;;;;-0.44;86.03;99354.51;1744869;80;21585;-77
2022/11/23 04:09:01;;;;;;;14.53;9.10;;;;;;;-0.47;86.21;99352.92;1743381;80;21050;-75
2022/11/23 04:11:29;;;;;;;10.78;8.33;;;;;;;-0.45;86.05;99360.17;1747243;80;21010;-75
2022/11/23 04:13:57;;;;;;;12.47;8.53;;;;;;;-0.53;86.07;99357.27;1697620;83;21040;-76
2022/11/23 04:16:23;;;;;;;10.28;7.75;;;;;;;-0.53;86.12;99353.36;1708223;83;21070;-77
2022/11/23 04:18:51;;;;;;;13.15;9.85;;;;;;;-0.60;86.24;99357.33;1707714;82;21522;-75
2022/11/23 04:21:17;;;;;;;14.23;9.45;;;;;;;-0.58;86.36;99361.97;1725059;82;21093;-73
2022/11/23 04:23:44;;;;;;;14.45;9.50;;;;;;;-0.62;87.02;99357.91;1707760;82;21018;-76
2022/11/23 04:26:12;;;;;;;12.73;8.65;;;;;;;-0.47;86.96;99355.53;1683255;84;21058;-77
2022/11/23 04:28:40;;;;;;;13.93;9.25;;;;;;;-0.45;86.85;99353.66;1757448;80;21049;-79
2022/11/23 04:31:07;;;;;;;12.70;8.75;;;;;;;-0.42;86.42;99356.06;1748971;81;21948;-76
2022/11/23 04:33:36;;;;;;;13.80;9.40;;;;;;;-0.50;86.36;99356.22;1733338;81;21014;-78
2022/11/23 04:36:05;;;;;;;14.18;9.43;;;;;;;-0.50;86.84;99355.77;1756585;81;21038;-79
2022/11/23 04:38:33;;;;;;;11.88;8.90;;;;;;;-0.46;86.88;99356.39;1756205;81;21034;-80
2022/11/23 04:40:59;;;;;;;13.58;9.50;;;;;;;-0.33;86.63;99358.51;1762155;81;21097;-77
2022/11/23 04:43:27;;;;;;;12.13;9.40;;;;;;;-0.36;86.48;99357.41;1688411;83;21502;-79
2022/11/23 04:45:54;;;;;;;11.95;8.63;;;;;;;-0.36;86.85;99356.10;1762991;81;21089;-79
2022/11/23 04:48:23;;;;;;;11.75;7.80;;;;;;;-0.33;86.67;99356.34;1736479;81;21053;-79
2022/11/23 04:50:50;;;;;;;12.40;8.65;;;;;;;-0.25;86.05;99361.85;1749892;81;21050;-77
2022/11/23 04:53:18;;;;;;;11.93;8.83;;;;;;;-0.32;86.32;99358.03;1754921;81;21077;-78
2022/11/23 04:55:46;;;;;;;11.30;8.75;;;;;;;-0.32;86.81;99361.47;1757539;81;21115;-76
2022/11/23 04:58:12;;;;;;;10.88;8.38;;;;;;;-0.27;86.40;99362.43;1756510;81;21030;-78
2022/11/23 05:00:39;;;;;;;11.15;8.08;;;;;;;-0.30;86.01;99376.55;1752221;81;21049;-79
2022/11/23 05:03:07;;;;;;;10.32;7.65;;;;;;;-0.33;85.99;99377.23;1762621;81;21105;-76
2022/11/23 05:05:39;;;;;;;12.78;9.93;;;;;;;-0.30;85.68;99372.63;1746093;81;21515;-76
2022/11/23 05:08:07;;;;;;;12.18;9.33;;;;;;;-0.36;85.85;99377.46;1716675;81;21287;-75
2022/11/23 05:10:38;;;;;;;11.70;8.40;;;;;;;-0.44;86.26;99367.08;1736688;81;21008;-75
2022/11/23 05:13:05;;;;;;;14.75;8.80;;;;;;;-0.38;86.67;99366.30;1752902;81;21080;-76
2022/11/23 05:15:31;;;;;;;12.18;7.83;;;;;;;-0.34;86.52;99368.57;1756468;81;21026;-76
2022/11/23 05:18:02;;;;;;;12.13;8.93;;;;;;;-0.32;86.38;99366.69;1753943;81;21066;-77
2022/11/23 05:20:30;;;;;;;16.12;11.20;;;;;;;-0.36;86.01;99366.54;1745303;81;21994;-80
2022/11/23 05:22:58;;;;;;;12.53;8.60;;;;;;;-0.36;86.19;99364.41;1758023;81;21038;-81
2022/11/23 05:25:25;;;;;;;19.45;9.45;;;;;;;-0.40;86.03;99369.01;1770421;81;21026;-77
2022/11/23 05:27:54;;;;;;;13.80;9.05;;;;;;;-0.44;85.80;99371.47;1758786;81;21424;-78
2022/11/23 05:30:20;;;;;;;12.53;9.28;;;;;;;-0.49;85.79;99363.12;1758075;80;21085;-78
2022/11/23 05:32:48;;;;;;;11.35;8.38;;;;;;;-0.57;86.35;99371.48;1744126;80;21827;-79
2022/11/23 05:35:17;;;;;;;10.30;8.58;;;;;;;-0.62;86.49;99377.47;1736228;80;21029;-79
2022/11/23 05:37:44;;;;;;;12.37;8.65;;;;;;;-0.58;86.42;99381.54;1746212;80;21095;-79
2022/11/23 05:40:12;;;;;;;12.47;8.90;;;;;;;-0.60;86.56;99386.89;1752254;80;21094;-79
2022/11/23 05:42:40;;;;;;;10.38;7.75;;;;;;;-0.53;86.63;99389.06;1697520;82;22242;-81
2022/11/23 05:45:09;;;;;;;10.55;8.33;;;;;;;-0.47;87.15;99392.55;1718623;82;21651;-78
2022/11/23 05:47:38;;;;;;;12.20;8.63;;;;;;;-0.40;86.63;99391.19;1706609;84;21031;-78
2022/11/23 05:50:07;;;;;;;10.63;7.67;;;;;;;-0.44;86.28;99397.09;1721623;82;21044;-78
2022/11/23 05:52:37;;;;;;;9.55;7.05;;;;;;;-0.50;86.22;99400.13;1707787;83;21664;-78
2022/11/23 05:55:04;;;;;;;8.63;5.97;;;;;;;-0.52;86.02;99405.07;1696445;83;21031;-79
2022/11/23 05:57:30;;;;;;;10.45;7.17;;;;;;;-0.52;85.51;99412.90;1699677;83;21300;-79
2022/11/23 05:59:57;;;;;;;11.85;8.08;;;;;;;-0.64;85.79;99406.75;1698357;83;21526;-77
2022/11/23 06:02:25;;;;;;;10.20;7.75;;;;;;;-0.73;85.94;99414.75;1691756;83;21117;-78
2022/11/23 06:04:54;;;;;;;10.90;6.42;;;;;;;-0.74;86.19;99408.33;1704671;83;21050;-78
2022/11/23 06:07:22;;;;;;;11.35;8.25;;;;;;;-0.77;86.51;99416.34;1698211;83;21011;-80
2022/11/23 06:09:56;;;;;;;15.32;8.88;;;;;;;-0.76;86.39;99420.16;1689927;83;21111;-79
2022/11/23 06:12:24;;;;;;;13.93;9.78;;;;;;;-0.84;86.55;99419.85;1687853;83;21132;-78
2022/11/23 06:14:52;;;;;;;12.68;8.53;;;;;;;-0.83;86.76;99430.63;1689891;83;21538;-79
2022/11/23 06:17:20;;;;;;;13.68;9.33;;;;;;;-0.85;86.89;99428.16;1692183;83;21030;-78
2022/11/23 06:19:50;;;;;;;20.12;14.18;;;;;;;-0.85;86.89;99429.91;1692831;83;21053;-79
2022/11/23 06:22:16;;;;;;;35.05;22.87;;;;;;;-0.85;87.11;99429.46;1702331;83;21673;-78
2022/11/23 06:24:45;;;;;;;21.95;15.05;;;;;;;-0.94;87.30;99426.63;1715244;83;21050;-79
2022/11/23 06:27:16;;;;;;;17.23;11.22;;;;;;;-0.97;87.58;99432.87;1675540;83;21003;-79
2022/11/23 06:29:43;;;;;;;14.15;9.98;;;;;;;-0.98;87.68;99436.91;1697010;83;21069;-80
2022/11/23 06:32:09;;;;;;;13.60;8.98;;;;;;;-0.94;87.75;99436.59;1700865;83;21050;-79
2022/11/23 06:34:36;;;;;;;12.95;8.65;;;;;;;-0.93;87.67;99440.85;1697434;83;21258;-79
2022/11/23 06:37:04;;;;;;;14.25;9.98;;;;;;;-1.02;88.21;99441.02;1705737;83;21059;-79
2022/11/23 06:39:30;;;;;;;15.72;9.28;;;;;;;-1.03;88.17;99443.23;1689348;83;21083;-80
2022/11/23 06:41:57;;;;;;;14.23;8.30;;;;;;;-1.00;88.07;99448.73;1697307;83;21042;-79
2022/11/23 06:44:24;;;;;;;16.00;10.13;;;;;;;-1.09;88.19;99446.25;1710929;83;20999;-79
2022/11/23 06:46:50;;;;;;;12.37;9.13;;;;;;;-1.15;88.34;99444.05;1709747;83;21941;-81
2022/11/23 06:49:19;;;;;;;13.32;9.73;;;;;;;-1.17;88.81;99443.33;1721950;83;21191;-81
2022/11/23 06:51:49;;;;;;;13.43;8.43;;;;;;;-1.13;88.74;99438.75;1710771;83;21010;-80
2022/11/23 06:54:15;;;;;;;13.22;8.58;;;;;;;-1.15;88.79;99434.93;1709390;83;21088;-81
2022/11/23 06:56:42;;;;;;;12.45;8.48;;;;;;;-1.08;88.73;99440.12;1706674;83;21082;-82
2022/11/23 06:59:10;;;;;;;14.20;8.63;;;;;;;-1.09;88.76;99441.04;1698855;83;22260;-80
2022/11/23 07:01:36;;;;;;;14.47;8.65;;;;;;;-1.03;88.63;99430.20;1689003;85;21370;-81
2022/11/23 07:04:05;;;;;;;12.90;9.40;;;;;;;-1.04;88.55;99427.23;1710029;83;21066;-80
2022/11/23 07:06:33;;;;;;;14.83;9.40;;;;;;;-1.02;88.45;99435.80;1703252;83;21071;-81
2022/11/23 07:09:02;;;;;;;13.85;9.35;;;;;;;-1.04;88.77;99428.55;1698471;83;21075;-79
2022/11/23 07:11:30;;;;;;;14.38;8.60;;;;;;;-1.03;88.96;99430.20;1714874;83;21372;-82
2022/11/23 07:13:57;;;;;;;13.43;8.93;;;;;;;-0.97;88.94;99426.83;1714796;83;21014;-80
2022/11/23 07:16:25;;;;;;;16.10;10.25;;;;;;;-0.85;88.73;99441.64;1699082;84;21201;-83
2022/11/23 07:18:52;;;;;;;13.53;9.20;;;;;;;-0.87;88.59;99435.70;1665819;82;21020;-79
2022/11/23 07:21:18;;;;;;;15.20;10.55;;;;;;;-0.89;88.75;99435.83;1705010;83;21061;-76
2022/11/23 07:23:47;;;;;;;14.35;9.38;;;;;;;-0.79;88.83;99439.95;1699006;83;21491;-75
2022/11/23 07:26:14;;;;;;;14.03;10.05;;;;;;;-0.77;88.77;99443.29;1701907;83;21034;-76
2022/11/23 07:28:41;;;;;;;15.80;10.28;;;;;;;-0.75;88.40;99444.02;1710731;81;21062;-76
2022/11/23 07:31:09;;;;;;;14.40;9.80;;;;;;;-0.75;88.42;99453.15;1740139;81;21053;-75
2022/11/23 07:33:35;;;;;;;19.27;12.75;;;;;;;-0.73;88.40;99454.36;1731621;81;21082;-75
2022/11/23 07:36:03;;;;;;;20.80;13.43;;;;;;;-0.69;87.95;99455.34;1725265;80;21265;-75
2022/11/23 07:38:30;;;;;;;18.40;12.07;;;;;;;-0.74;87.86;99446.98;1742885;81;21054;-75
2022/11/23 07:40:59;;;;;;;21.37;13.00;;;;;;;-0.84;87.92;99449.38;1684303;83;21082;-75
2022/11/23 07:43:44;;;;;;;20.72;12.13;;;;;;;-0.92;88.21;99461.27;1748401;82;21097;-75
2022/11/23 07:46:11;;;;;;;19.05;12.45;;;;;;;-1.00;88.22;99465.20;1748452;80;21017;-76
2022/11/23 07:48:39;;;;;;;22.82;14.90;;;;;;;-1.01;88.48;99463.52;1751593;81;21121;-74
2022/11/23 07:51:06;;;;;;;25.43;15.23;;;;;;;-0.98;88.60;99466.89;1752105;80;22223;-75
2022/11/23 07:53:34;;;;;;;24.30;13.93;;;;;;;-1.01;88.72;99459.61;1748399;82;21575;-75
2022/11/23 07:56:01;;;;;;;15.35;10.20;;;;;;;-1.02;88.51;99458.44;1749006;82;21065;-74
2022/11/23 07:58:27;;;;;;;18.35;12.13;;;;;;;-1.07;88.07;99467.84;1747311;81;21093;-75
2022/11/23 08:00:54;;;;;;;17.95;11.80;;;;;;;-1.10;88.15;99469.37;1744310;81;21150;-76
2022/11/23 08:03:21;;;;;;;19.02;12.65;;;;;;;-1.16;88.25;99484.08;1741044;82;21452;-74
2022/11/23 08:05:48;;;;;;;20.85;13.25;;;;;;;-1.22;88.58;99484.04;1744273;82;21027;-75
2022/11/23 08:08:14;;;;;;;20.60;13.48;;;;;;;-1.21;89.09;99478.35;1742574;81;21074;-75
2022/11/23 08:10:41;;;;;;;19.60;13.60;;;;;;;-1.13;89.09;99488.28;1736469;80;21557;-74
2022/11/23 08:13:08;;;;;;;21.87;13.08;;;;;;;-1.11;88.87;99494.23;1751444;80;21156;-74
2022/11/23 08:15:34;;;;;;;20.90;14.00;;;;;;;-1.08;89.11;99492.27;1748244;82;21623;-74
2022/11/23 08:18:03;;;;;;;18.40;12.80;;;;;;;-1.04;88.91;99488.52;1741772;82;21042;-73
2022/11/23 08:20:32;;;;;;;39.65;20.70;;;;;;;-1.02;89.01;99490.55;1752198;81;21065;-74
2022/11/23 08:22:59;;;;;;;33.55;16.35;;;;;;;-0.98;88.83;99485.98;1744246;80;21062;-73
2022/11/23 08:25:27;;;;;;;45.08;19.95;;;;;;;-1.02;88.92;99487.94;1746815;80;21109;-74
2022/11/23 08:28:01;;;;;;;30.70;16.05;;;;;;;-0.95;88.81;99498.80;1764263;80;21100;-74
2022/11/23 08:30:29;;;;;;;23.35;14.30;;;;;;;-0.92;88.68;99499.08;1746990;80;21088;-74
2022/11/23 08:32:56;;;;;;;22.17;14.43;;;;;;;-0.99;88.91;99494.72;1747723;80;21460;-74
2022/11/23 08:35:25;;;;;;;21.17;13.03;;;;;;;-0.96;89.25;99489.31;1751167;80;21041;-74
2022/11/23 08:37:51;;;;;;;20.00;12.10;;;;;;;-0.90;89.01;99496.73;1745345;80;21068;-74
2022/11/23 08:40:17;;;;;;;17.67;12.00;;;;;;;-0.85;88.87;99495.11;1743701;80;21041;-73
2022/11/23 08:42:46;;;;;;;16.52;12.13;;;;;;;-0.86;88.51;99494.28;1778145;80;21049;-73
2022/11/23 08:45:13;;;;;;;18.48;12.50;;;;;;;-0.84;88.37;99494.19;1779209;80;21133;-74
2022/11/23 08:47:40;;;;;;;17.65;12.60;;;;;;;-0.89;88.46;99489.29;1748831;80;21133;-73
2022/11/23 08:50:07;;;;;;;17.45;12.50;;;;;;;-0.83;88.31;99488.88;1762225;80;21278;-73
2022/11/23 08:52:34;;;;;;;17.57;11.40;;;;;;;-0.84;88.47;99484.58;1743228;80;21093;-73
2022/11/23 08:55:01;;;;;;;15.25;10.28;;;;;;;-0.83;88.34;99479.75;1750354;80;21082;-74
2022/11/23 08:57:27;;;;;;;15.25;10.65;;;;;;;-0.83;88.47;99481.05;1743044;80;21043;-74
2022/11/23 08:59:54;;;;;;;17.65;11.22;;;;;;;-0.79;88.44;99469.95;1753017;80;21026;-73
2022/11/23 09:02:21;;;;;;;18.40;12.25;;;;;;;-0.77;88.44;99475.89;1764989;80;21748;-74
2022/11/23 09:04:49;;;;;;;22.65;14.60;;;;;;;-0.71;88.25;99478.09;1761830;80;21041;-74
2022/11/23 09:07:15;;;;;;;24.37;15.25;;;;;;;-0.76;87.94;99477.55;1760089;80;21033;-74
2022/11/23 09:09:42;;;;;;;18.25;12.30;;;;;;;-0.79;87.70;99468.64;1746840;80;21082;-75
2022/11/23 09:12:08;;;;;;;15.95;11.38;;;;;;;-0.85;88.17;99477.71;1757611;80;20995;-73
2022/11/23 09:14:35;;;;;;;18.00;12.25;;;;;;;-0.76;88.19;99474.94;1760316;80;21151;-73
2022/11/23 09:17:01;;;;;;;16.95;12.40;;;;;;;-0.71;87.37;99477.27;1769555;80;21546;-73
2022/11/23 09:19:29;;;;;;;27.70;17.77;;;;;;;-0.80;87.47;99469.56;1744230;80;21041;-74
2022/11/23 09:21:57;;;;;;;23.05;15.40;;;;;;;-0.83;87.50;99477.59;1751918;80;21037;-72
2022/11/23 09:24:24;;;;;;;18.45;12.98;;;;;;;-0.90;87.67;99463.30;1749272;80;21055;-74
2022/11/23 09:26:51;;;;;;;19.77;14.23;;;;;;;-0.91;88.12;99460.31;1750733;80;21129;-73
2022/11/23 09:29:17;;;;;;;21.23;14.75;;;;;;;-0.91;88.14;99452.02;1722168;81;21056;-73
2022/11/23 09:31:43;;;;;;;23.62;16.95;;;;;;;-0.87;87.94;99460.03;1744654;81;21051;-74
2022/11/23 09:34:12;;;;;;;19.35;14.80;;;;;;;-0.91;87.94;99451.19;1742295;81;21005;-72
2022/11/23 09:36:39;;;;;;;27.40;16.35;;;;;;;-0.91;87.84;99454.63;1747446;82;21022;-72
2022/11/23 09:39:07;;;;;;;27.27;17.80;;;;;;;-0.94;88.27;99448.33;1746979;82;21485;-72
2022/11/23 09:43:55;;;;;;;24.23;16.73;;;;;;;-0.81;87.95;99451.79;1834004;77;22759;-72
2022/11/23 09:46:36;;;;;;;20.65;15.55;;;;;;;-0.92;88.14;99455.58;1763646;79;20952;-72
2022/11/23 09:49:18;;;;;;;23.32;16.17;;;;;;;-1.00;88.17;99449.56;1821131;78;21488;-73
2022/11/23 09:51:45;;;;;;;25.57;18.07;;;;;;;-1.01;88.11;99453.57;1803241;78;21483;-72
2022/11/23 09:54:26;;;;;;;24.12;17.45;;;;;;;-1.04;88.21;99439.45;1813578;78;21056;-72
2022/11/23 09:56:54;;;;;;;22.15;15.40;;;;;;;-1.10;88.54;99437.22;1815126;78;21532;-72
2022/11/23 09:59:42;;;;;;;20.72;14.35;;;;;;;-1.03;88.91;99443.23;1817154;77;21035;-72
2022/11/23 10:02:21;;;;;;;20.90;14.07;;;;;;;-0.86;88.92;99438.69;1810334;78;21123;-72
2022/11/23 10:04:47;;;;;;;17.82;12.82;;;;;;;-0.76;89.31;99427.98;1777343;78;20997;-72
2022/11/23 10:07:50;;;;;;;20.12;14.15;;;;;;;-0.67;88.95;99427.38;1809312;78;21524;-72
2022/11/23 10:10:44;;;;;;;17.52;12.90;;;;;;;-0.61;88.05;99424.81;1804285;78;21071;-72
2022/11/23 10:13:34;;;;;;;19.92;13.83;;;;;;;-0.55;88.31;99424.88;1805214;77;21010;-73
2022/11/23 10:16:09;;;;;;;19.85;14.65;;;;;;;-0.38;87.54;99418.50;1822598;78;21129;-72
2022/11/23 10:18:53;;;;;;;21.45;15.80;;;;;;;-0.31;87.58;99423.64;1803928;78;20978;-73
2022/11/23 10:21:31;;;;;;;24.20;16.17;;;;;;;-0.34;87.04;99426.00;1805581;78;21016;-73
2022/11/23 10:24:11;;;;;;;24.10;16.97;;;;;;;-0.40;86.52;99429.86;1802989;78;21026;-73
2022/11/23 10:26:40;;;;;;;23.38;16.95;;;;;;;-0.35;86.47;99423.48;1812961;78;21020;-74
2022/11/23 10:29:15;;;;;;;24.37;17.92;;;;;;;-0.44;86.15;99428.41;1814430;78;21060;-73
2022/11/23 10:31:46;;;;;;;24.23;16.25;;;;;;;-0.55;86.25;99429.61;1808955;78;21080;-72
2022/11/23 10:34:16;;;;;;;21.87;16.27;;;;;;;-0.58;86.02;99425.06;1815958;78;21069;-73
2022/11/23 10:36:43;;;;;;;21.80;15.75;;;;;;;-0.67;86.07;99427.84;1819201;78;21008;-73
2022/11/23 10:39:18;;;;;;;23.98;17.42;;;;;;;-0.66;85.97;99425.59;1826916;78;21041;-73
2022/11/23 10:41:45;;;;;;;29.55;20.15;;;;;;;-0.71;86.06;99429.00;1813930;77;21092;-74
2022/11/23 10:44:35;;;;;;;32.20;21.02;;;;;;;-0.74;85.97;99416.16;1777156;80;21021;-73
2022/11/23 10:47:02;;;;;;;25.45;17.92;;;;;;;-0.80;86.36;99418.23;1761937;81;21041;-73
2022/11/23 10:49:31;;;;;;;30.12;19.90;;;;;;;-0.73;86.44;99434.31;1793299;79;21068;-75
2022/11/23 10:52:05;;;;;;;31.82;20.52;;;;;;;-0.76;86.25;99419.34;1793779;78;21095;-75
2022/11/23 10:54:40;;;;;;;28.52;19.17;;;;;;;-0.77;86.27;99431.55;1809733;78;21984;-75
2022/11/23 10:57:34;;;;;;;27.22;19.50;;;;;;;-0.80;86.42;99431.27;1783836;79;21034;-74
2022/11/23 11:00:10;;;;;;;30.23;21.02;;;;;;;-0.77;86.71;99426.78;1798312;79;21025;-74
2022/11/23 11:02:44;;;;;;;31.40;21.02;;;;;;;-0.78;86.83;99433.78;1777513;80;21006;-74
2022/11/23 11:05:34;;;;;;;31.42;21.57;;;;;;;-0.71;86.89;99436.35;1809809;78;21052;-74
2022/11/23 11:08:13;;;;;;;35.40;24.00;;;;;;;-0.67;86.91;99445.64;1784387;79;20989;-76
2022/11/23 11:10:42;;;;;;;35.95;23.20;;;;;;;-0.56;87.15;99431.02;1792496;80;21046;-75
2022/11/23 11:13:24;;;;;;;28.60;19.40;;;;;;;-0.47;86.81;99438.22;1790020;79;21068;-75
2022/11/23 11:16:01;;;;;;;26.77;19.20;;;;;;;-0.42;86.12;99434.84;1792187;78;21076;-74
2022/11/23 11:18:34;;;;;;;28.95;21.12;;;;;;;-0.50;86.17;99432.75;1810114;78;21029;-75
2022/11/23 11:21:05;;;;;;;27.58;18.60;;;;;;;-0.53;86.53;99429.03;1761682;81;22189;-76
2022/11/23 11:23:33;;;;;;;31.52;20.45;;;;;;;-0.42;86.86;99427.00;1761304;80;21109;-75
2022/11/23 11:26:09;;;;;;;29.18;19.55;;;;;;;-0.35;86.56;99428.70;1750405;79;21077;-77
2022/11/23 11:28:42;;;;;;;28.10;19.35;;;;;;;-0.29;86.25;99425.22;1801586;78;21494;-75
2022/11/23 11:31:29;;;;;;;31.07;19.90;;;;;;;-0.25;86.16;99425.36;1797974;79;21134;-75
2022/11/23 11:34:20;;;;;;;30.92;20.35;;;;;;;-0.22;85.85;99425.12;1795188;79;21132;-75